createdAt,value
2018-07-24T00:03:35.044Z,20.75
2018-07-24T00:08:38.579Z,20.67
2018-07-24T00:13:42.165Z,20.63
2018-07-24T00:18:46.515Z,20.38
2018-07-24T00:23:50.723Z,20.13
2018-07-24T00:28:54.215Z,20.18
2018-07-24T00:33:58.533Z,20.25
2018-07-24T00:39:02.224Z,20.28
2018-07-24T00:44:06.188Z,20.20
2018-07-24T00:49:09.674Z,20.13
2018-07-24T00:54:13.338Z,20.08
2018-07-24T00:59:16.847Z,20.05
2018-07-24T01:04:20.561Z,19.90
2018-07-24T01:09:24.116Z,19.73
2018-07-24T01:14:27.657Z,19.70
2018-07-24T01:19:31.165Z,19.49
2018-07-24T01:24:35.262Z,19.26
2018-07-24T01:29:38.833Z,19.21
2018-07-24T01:34:42.402Z,19.23
2018-07-24T01:39:46.354Z,19.16
2018-07-24T01:44:50.464Z,19.35
2018-07-24T01:49:54.048Z,19.47
2018-07-24T01:54:57.581Z,19.48
2018-07-24T02:00:01.166Z,19.36
2018-07-24T02:05:04.863Z,19.23
2018-07-24T02:10:08.888Z,19.09
2018-07-24T02:15:12.849Z,19.11
2018-07-24T02:20:16.373Z,19.06
2018-07-24T02:25:19.950Z,19.12
2018-07-24T02:30:32.446Z,19.13
2018-07-24T02:35:35.974Z,19.17
2018-07-24T02:40:39.574Z,19.17
2018-07-24T02:45:43.128Z,18.84
2018-07-24T02:50:46.704Z,18.63
2018-07-24T02:55:50.264Z,18.56
2018-07-24T03:00:53.853Z,18.29
2018-07-24T03:05:57.431Z,18.22
2018-07-24T03:11:00.931Z,18.25
2018-07-24T03:16:05.064Z,18.36
2018-07-24T03:21:08.675Z,18.49
2018-07-24T03:26:12.247Z,18.52
2018-07-24T03:31:15.755Z,18.44
2018-07-24T03:36:19.966Z,18.47
2018-07-24T03:41:23.519Z,18.38
2018-07-24T03:46:28.841Z,18.50
2018-07-24T03:51:32.369Z,18.51
2018-07-24T03:56:35.936Z,18.51
2018-07-24T04:01:39.707Z,18.63
2018-07-24T04:06:43.353Z,18.69
2018-07-24T04:11:47.459Z,18.79
2018-07-24T04:16:52.608Z,18.77
2018-07-24T04:21:56.089Z,18.65
2018-07-24T04:26:59.690Z,18.89
2018-07-24T04:32:03.227Z,18.91
2018-07-24T04:37:07.096Z,19.06
2018-07-24T04:42:10.645Z,18.87
2018-07-24T04:52:16.990Z,20.53
2018-07-24T04:57:20.524Z,22.54
2018-07-24T05:02:24.102Z,23.15
2018-07-24T05:07:27.720Z,24.07
2018-07-24T05:12:31.689Z,24.42
2018-07-24T05:17:35.190Z,23.78
2018-07-24T05:22:38.683Z,23.04
2018-07-24T05:27:42.262Z,21.96
2018-07-24T05:32:46.363Z,21.00
2018-07-24T05:37:49.934Z,21.00
2018-07-24T05:42:53.434Z,21.18
2018-07-24T05:47:56.970Z,21.15
2018-07-24T05:53:00.468Z,21.29
2018-07-24T05:58:05.359Z,21.39
2018-07-24T06:03:08.853Z,21.58
2018-07-24T06:08:12.575Z,21.85
2018-07-24T06:13:16.117Z,22.01
2018-07-24T06:18:19.629Z,22.30
2018-07-24T06:23:23.295Z,22.56
2018-07-24T06:28:26.918Z,22.99
2018-07-24T06:33:31.335Z,23.08
2018-07-24T06:38:35.022Z,23.34
2018-07-24T06:43:39.108Z,23.76
2018-07-24T06:48:44.382Z,24.14
2018-07-24T06:53:47.870Z,24.15
2018-07-24T06:58:51.402Z,24.35
2018-07-24T07:03:55.549Z,24.43
2018-07-24T07:09:06.883Z,24.83
2018-07-24T07:14:10.349Z,25.05
2018-07-24T07:19:14.364Z,25.19
2018-07-24T07:24:17.860Z,25.33
2018-07-24T07:29:21.362Z,25.40
2018-07-24T07:34:25.087Z,25.81
2018-07-24T07:39:29.086Z,26.01
2018-07-24T07:44:32.700Z,26.38
2018-07-24T07:49:36.349Z,26.23
2018-07-24T07:54:40.716Z,26.73
2018-07-24T07:59:44.243Z,26.89
2018-07-24T08:04:49.152Z,27.33
2018-07-24T08:09:52.704Z,27.52
2018-07-24T08:14:56.305Z,27.60
2018-07-24T08:19:59.937Z,27.93
2018-07-24T08:25:03.493Z,28.11
2018-07-24T08:30:08.127Z,28.36
2018-07-24T08:35:12.683Z,28.51
2018-07-24T08:40:16.840Z,28.75
2018-07-24T08:45:20.391Z,29.00
2018-07-24T08:50:23.978Z,28.90
2018-07-24T08:55:27.726Z,28.89
2018-07-24T09:00:37.076Z,29.04
2018-07-24T09:05:40.628Z,29.23
2018-07-24T09:10:44.153Z,29.40
2018-07-24T09:15:47.958Z,29.56
2018-07-24T09:20:51.525Z,29.65
2018-07-24T09:25:55.129Z,29.60
2018-07-24T09:30:58.690Z,29.78
2018-07-24T09:36:02.225Z,29.81
2018-07-24T09:41:05.770Z,29.57
2018-07-24T09:46:09.295Z,30.13
2018-07-24T09:51:13.274Z,30.18
2018-07-24T09:56:16.768Z,30.20
2018-07-24T10:01:25.787Z,30.51
2018-07-24T10:06:29.926Z,30.64
2018-07-24T10:11:33.497Z,30.41
2018-07-24T10:16:37.527Z,30.28
2018-07-24T10:21:41.020Z,30.35
2018-07-24T10:26:45.162Z,30.05
2018-07-24T10:31:48.784Z,30.28
2018-07-24T10:36:52.844Z,30.46
2018-07-24T10:41:56.366Z,30.41
2018-07-24T10:47:00.096Z,30.46
2018-07-24T10:52:03.649Z,30.57
2018-07-24T10:57:07.257Z,30.77
2018-07-24T11:02:10.902Z,30.63
2018-07-24T11:07:14.379Z,30.65
2018-07-24T11:12:18.750Z,31.04
2018-07-24T11:17:22.265Z,31.37
2018-07-24T11:22:26.048Z,31.56
2018-07-24T11:27:29.540Z,31.49
2018-07-24T11:32:34.516Z,31.65
2018-07-24T11:37:38.112Z,31.64
2018-07-24T11:42:41.651Z,31.56
2018-07-24T11:47:45.139Z,31.37
2018-07-24T11:52:48.693Z,31.33
2018-07-24T11:57:52.165Z,31.29
2018-07-24T12:02:55.945Z,31.70
2018-07-24T12:07:59.456Z,31.56
2018-07-24T12:13:03.078Z,31.78
2018-07-24T12:18:06.644Z,32.10
2018-07-24T12:23:10.168Z,32.41
2018-07-24T12:28:13.610Z,32.47
2018-07-24T12:33:17.126Z,32.26
2018-07-24T12:38:20.605Z,32.18
2018-07-24T12:43:24.349Z,32.25
2018-07-24T12:48:27.933Z,32.56
2018-07-24T12:53:31.457Z,32.62
2018-07-24T12:58:35.518Z,32.33
2018-07-24T13:03:39.051Z,32.35
2018-07-24T13:08:42.564Z,32.30
2018-07-24T13:13:46.090Z,32.26
2018-07-24T13:18:49.584Z,32.27
2018-07-24T13:23:53.130Z,32.48
2018-07-24T13:28:56.580Z,32.51
2018-07-24T13:34:01.209Z,32.30
2018-07-24T13:39:07.036Z,32.58
2018-07-24T13:44:10.597Z,32.60
2018-07-24T13:49:14.180Z,32.52
2018-07-24T13:54:17.715Z,32.38
2018-07-24T13:59:21.184Z,32.68
2018-07-24T14:04:24.686Z,32.93
2018-07-24T14:09:28.234Z,32.80
2018-07-24T14:14:31.780Z,33.00
2018-07-24T14:19:35.265Z,33.00
2018-07-24T14:24:38.878Z,33.09
2018-07-24T14:29:42.341Z,32.84
2018-07-24T14:34:46.054Z,32.94
2018-07-24T14:39:49.743Z,33.04
2018-07-24T14:44:54.022Z,32.99
2018-07-24T14:49:57.502Z,33.10
2018-07-24T14:55:01.012Z,33.15
2018-07-24T15:00:06.233Z,33.07
2018-07-24T15:05:09.837Z,33.26
2018-07-24T15:10:13.338Z,33.18
2018-07-24T15:15:16.869Z,32.98
2018-07-24T15:20:20.309Z,33.01
2018-07-24T15:25:23.986Z,32.91
2018-07-24T15:30:30.696Z,33.02
2018-07-24T15:35:35.065Z,32.99
2018-07-24T15:40:38.609Z,32.92
2018-07-24T15:45:42.121Z,32.97
2018-07-24T15:50:45.577Z,32.90
2018-07-24T15:55:49.607Z,33.03
2018-07-24T16:00:53.134Z,32.96
2018-07-24T16:05:56.898Z,33.01
2018-07-24T16:11:00.489Z,32.95
2018-07-24T16:16:04.080Z,32.93
2018-07-24T16:21:07.609Z,32.82
2018-07-24T16:26:11.152Z,32.91
2018-07-24T16:31:14.645Z,32.85
2018-07-24T16:36:18.258Z,32.80
2018-07-24T16:41:21.911Z,32.86
2018-07-24T16:46:25.565Z,32.77
2018-07-24T16:51:29.292Z,33.00
2018-07-24T16:56:33.836Z,33.66
2018-07-24T17:01:37.387Z,34.44
2018-07-24T17:06:40.981Z,34.29
2018-07-24T17:11:44.564Z,34.38
2018-07-24T17:16:48.588Z,34.10
2018-07-24T17:21:52.058Z,33.96
2018-07-24T17:26:56.585Z,33.96
2018-07-24T17:32:00.053Z,33.63
2018-07-24T17:37:03.572Z,33.28
2018-07-24T17:42:07.073Z,32.90
2018-07-24T17:47:10.654Z,32.70
2018-07-24T17:52:14.192Z,32.34
2018-07-24T17:57:18.331Z,32.18
2018-07-24T18:02:21.930Z,31.99
2018-07-24T18:07:25.552Z,31.80
2018-07-24T18:12:30.108Z,31.72
2018-07-24T18:17:34.200Z,31.50
2018-07-24T18:22:37.672Z,31.23
2018-07-24T18:27:41.652Z,31.07
2018-07-24T18:32:45.171Z,30.89
2018-07-24T18:37:48.718Z,30.70
2018-07-24T18:42:52.202Z,30.50
2018-07-24T18:47:55.763Z,30.34
2018-07-24T18:52:59.363Z,30.18
2018-07-24T18:58:02.910Z,30.00
2018-07-24T19:03:06.370Z,29.83
2018-07-24T19:08:09.968Z,29.65
2018-07-24T19:13:13.547Z,29.45
2018-07-24T19:18:17.629Z,29.17
2018-07-24T19:23:21.097Z,28.96
2018-07-24T19:28:24.631Z,28.76
2018-07-24T19:33:28.575Z,28.57
2018-07-24T19:38:32.134Z,28.34
2018-07-24T19:43:35.585Z,28.20
2018-07-24T19:48:39.290Z,27.95
2018-07-24T19:53:43.331Z,27.82
2018-07-24T19:58:47.133Z,27.68
2018-07-24T20:03:50.722Z,27.57
2018-07-24T20:08:54.353Z,27.43
2018-07-24T20:13:57.946Z,27.27
2018-07-24T20:19:01.649Z,27.16
2018-07-24T20:24:05.207Z,26.99
2018-07-24T20:29:08.790Z,26.95
2018-07-24T20:34:12.465Z,26.82
2018-07-24T20:39:16.622Z,26.68
2018-07-24T20:44:20.233Z,26.61
2018-07-24T20:49:23.774Z,26.51
2018-07-24T20:54:27.353Z,26.42
2018-07-24T20:59:31.018Z,26.32
2018-07-24T21:04:34.520Z,26.25
2018-07-24T21:09:38.157Z,26.14
2018-07-24T21:14:41.741Z,26.04
2018-07-24T21:19:45.365Z,26.01
2018-07-24T21:24:49.388Z,25.91
2018-07-24T21:29:52.934Z,25.80
2018-07-24T21:34:56.460Z,25.72
2018-07-24T21:40:00.070Z,25.53
2018-07-24T21:45:03.599Z,25.46
2018-07-24T21:50:07.229Z,25.39
2018-07-24T21:55:10.788Z,25.31
2018-07-24T22:00:16.489Z,25.23
2018-07-24T22:05:20.354Z,25.19
2018-07-24T22:10:24.371Z,25.10
2018-07-24T22:15:28.283Z,25.02
2018-07-24T22:20:31.849Z,24.92
2018-07-24T22:25:35.341Z,24.75
2018-07-24T22:30:39.489Z,24.50
2018-07-24T22:35:42.997Z,24.29
2018-07-24T22:40:46.613Z,23.98
2018-07-24T22:45:50.096Z,23.70
2018-07-24T22:50:53.666Z,23.64
2018-07-24T22:55:57.156Z,23.64
2018-07-24T23:01:01.631Z,23.83
2018-07-24T23:06:05.820Z,23.96
2018-07-24T23:11:09.367Z,23.97
2018-07-24T23:16:13.011Z,23.90
2018-07-24T23:21:16.579Z,23.92
2018-07-24T23:26:20.105Z,23.75
2018-07-24T23:31:23.661Z,23.74
2018-07-24T23:36:27.263Z,23.58
2018-07-24T23:41:30.793Z,23.31
2018-07-24T23:46:34.430Z,23.21
2018-07-24T23:51:38.014Z,23.29
2018-07-24T23:56:41.521Z,23.22
